Aérodrome :
LOGIN :

S'inscrire | Disclaimer

   EN    FR    IT 

 










Légende :    VFR   VFR Marginal   IFR   IFR Intensif   IFR Très Intensif
Visi : 
Plafond : 
>= 8 km
>= 3000ft
5 à 8 km
1000 à 3000 ft
1500m à 5 km
500 à 1000 ft
800 à 1500m
200 à 500 ft
< 800m
< 200 ft
Symboles :   Orages  Brouillard  Fortes neiges  Fortes précipitations  Vent > 20 kt
SIGMETs :   Divers  Orages  Givrage  Turbulence  Onde Orograph.  Cendres Volcan.






- Altitude de l'aérodrome : 7 ft
- Code IATA : VCE


LIPZ - Marco Polo Int. Venezia

DERNIER METAR :
  • 291020Z 33003KT 270V060 0300 R04R/0375N FG VV/// 05/05 Q1010 BECMG 1500 BCFG

METARs EXPIRÉS :
  • 290950Z 30003KT 270V330 0200 R04R/0250N FG VV/// 05/05 Q1010 BECMG 1500 BCFG
  • 290920Z 25003KT 160V320 0200 R04R/0200N FG VV/// 04/04 Q1009 BECMG 1500 BCFG
  • 290850Z 33004KT 290V020 0200 R04R/0175N FG VV/// 04/03 Q1009 BECMG 0500 FG
  • 290820Z VRB02KT 0150 R04R/0175N FG VV/// 03/03 Q1009 BECMG 0500 FG
  • 290750Z VRB02KT 0100 R04R/0150N FG VV/// 03/03 Q1009 BECMG 0300 FG

TAF AMD TAF LIPZ
Valide du 29 à 06h jusqu'au 30 à 12h UTC


290622Z 2906/3012 VRB05KT 0150 FG BKN001
BECMG 2908/2911 7000 SCT010
TEMPO 2922/3008 1500 BCFG



MET'MAP, la Météo Aéronautique d'un coup d'oeil ! - Copyright ORBIFLY Décembre 2007 - Disclaimer

ORBIFLY MET'MAP TEAM :

Programmation & Développement : Alexandra Zaïnal
Sur une idée originale de : Baudouin d'Aumeries
Assistance à la programmation : Marc-Olivier Méhu
Soutien technique & logistique : Manuel Goepfert

Contact : metmap@orbifly.com




SOURCES & CREDITS :

   NOAA